Terminal Aerodrome Forecast
Issued by NWS

Home | Current Version | Previous Version | Text Only | Print | Product List | Glossary On
Versions: 1 2 3 4 5 6 7 8 9 10 11 12 13 14 15 16 17 18 19 20 21 22 23 24
000
FTUS41 KBOX 161203 AAA
TAFHYA
TAF AMD
KHYA 161203Z 1612/1712 34014G29KT P6SM SCT008 BKN035
     FM161300 34016G27KT P6SM SCT035 BKN150
     FM161400 35019G28KT P6SM FEW035 SCT250
     FM162000 01015KT P6SM SKC
     FM162300 03009KT P6SM SKC
     FM171000 05011G21KT P6SM FEW250=

USA.gov is the U.S. government's official web portal to all federal, state and local government web resources and services.